Share

Prudhoe Bay, AK

Deadhorse (PASC) Elev 59 ft | 70.19 °N, 148.47 °W | Change Station

Current weather conditions updated 55 minutes ago

Overcast
Overcast
18 °F
Feels Like 5 °F
N
13
Wind Variable Wind from NE
Sunrise 5:31 AM
Sunset 10:18 PM
Moon Waning Gibbous

Tomorrow is forecast to be Cooler than today.

Pressure 29.86 in
Visibility 7.0 miles
Clouds Overcast 2400 ft
Windchill 5 °F
Dew Point 13 °F
Humidity 81%
Rainfall 0.00 in
Snow Depth Not available.
UV 1 out of 16
Pollen Not available.
Air Quality Not available.
Flu Activity Sporadic
METAR PASC 190053Z 05011KT 7SM OVC024 M08/M11 A2986 RMK AO2 SNE43 SLP112 P0000 T10781106

More Conditions Fewer Conditions

Pressure 29.86 in
Visibility 7.0 miles
Clouds Overcast 2400 ft
Windchill 5 °F
Dew Point 13 °F
Humidity 81%
Rainfall 0.00 in
Snow Depth Not available.
UV 1 out of 16
Pollen Not available.
Air Quality Not available.
Flu Activity Sporadic
METAR PASC 190053Z 05011KT 7SM OVC024 M08/M11 A2986 RMK AO2 SNE43 SLP112 P0000 T10781106

More Conditions Fewer Conditions

10-Day Weather Forecast

Almanac

Astronomy

Apr. 18, 2014 Rise Set
Actual Time 5:31 AM AKDT 10:18 PM AKDT
Civil Twilight 4:00 AM AKDT 11:51 PM AKDT
Nautical Twilight Sun does not rise Sun does not rise
Astronomical Twilight Sun does not rise Sun does not rise
Moon 3:05 AM AKDT (4/18) 6:03 AM AKDT (4/18)
Length of Visible Light 19h 50m
Length of Day
16h 46m
Tomorrow will be 9m 57s longer.
Waning Gibbous, 84% of the Moon is Illuminated
Today
Waning Gibbous
Apr 22
Last Quarter
Apr 29
New
May 6
First Quarter
May 14
Full

Today's Extremes

State Highs State Lows

Community

  • Cloudy spring view
    Cloudy spring view
  • Old barn
    Old barn
  • What's for Lunch?
    What's for Lunch?
  • SUNRISE THROUGH THE TREES.
    SUNRISE THROUGH THE TREES.
  • Dog Wood Blossoms
    Dog Wood Blossoms

WunderPhotos

Upload Photos

1,702,570 photos uploaded!

WunderBlogs® & News

Nearby

Snow Depth

Station Depth Elevation
Imnaviat Creek 94 in 3050 ft
Atigun Pass 37 in 4800 ft
Coldfoot 24 in 1040 ft
Gobblers Knob 8 in 2030 ft
Fort Yukon 16 in 430 ft

Coastal Water Temperatures

Place Temperature
No Stations Reporting

Earthquake Activity

City Distance Mag. Time & Date
No recent earthquake activity has been reported nearby.
Minimum magnitude displayed is 2.5.

Nearby Weather Stations

Station Location Temp. Windchill Dew Point Humidity Wind Precip. Elev Updated Type
Alyeska Pipeline PS-01, Prudhoe Bay, AK 20.5 °F 20 °F 16 °F 84% SE  at  3.0 mph 0.00 in / hr 46 ft 5:48 PM AKDT Rapid Fire
MesoWest PRUDHOE BAY , Prudhoe Bay, AK 19 °F 19 °F - - North  at  - 0.00 in / hr 29 ft 4:00 PM AKDT MADIS

Show More Stations Show Fewer Stations

What do you think?

We're not finished. Please let us know what you like, what you don't like, and what you are still missing.